Terminal Aerodrome Forecast
Issued by NWS Columbia, SC

Home | Current Version | Previous Version | Text Only | Print | Product List | Glossary On
Versions: 1 2 3 4 5 6 7 8 9 10 11 12 13 14 15 16 17 18 19 20 21 22 23 24 25 26
000
FTUS42 KCAE 040520
TAFCAE
TAF
KCAE 040520Z 0406/0506 VRB03KT P6SM -RA OVC080
     FM040900 07003KT P6SM VCSH OVC050
     FM041500 07004KT 6SM -RA OVC035
     FM041800 07004KT 5SM -RA BR OVC020
     FM050000 07004KT 4SM -RA BR OVC012=

USA.gov is the U.S. government's official web portal to all federal, state and local government web resources and services.